Time;durP1;ratioP1;P1;durP2;ratioP2;P2;SDS_P1;SDS_P2;PMS_P1;PMS_P2;Temp;Humidity;BMP_temperature;BMP_pressure;BME280_temperature;BME280_humidity;BME280_pressure;Samples;Min_cycle;Max_cycle;Signal;HPM_P1;HPM_P2
2022/10/15 00:01:13;;;;;;;19.13;12.80;;;12.90;94.60;;;13.11;60.53;95203.69;5085126;28;20464;-55
2022/10/15 00:03:41;;;;;;;16.23;10.20;;;12.90;94.60;;;13.11;60.42;95197.59;5081859;28;20481;-56
2022/10/15 00:06:10;;;;;;;11.43;8.77;;;12.90;94.80;;;13.09;60.52;95201.22;5085419;28;20445;-55
2022/10/15 00:08:38;;;;;;;12.87;8.77;;;12.90;94.70;;;13.08;60.73;95204.81;5085451;28;21303;-56
2022/10/15 00:11:08;;;;;;;15.90;9.40;;;12.90;94.90;;;13.05;60.74;95196.38;5085476;28;20488;-56
2022/10/15 00:13:37;;;;;;;14.07;7.60;;;12.90;95.10;;;13.04;61.10;95197.34;5084555;28;20469;-55
2022/10/15 00:16:04;;;;;;;11.57;8.37;;;12.90;95.30;;;13.06;61.20;95198.84;5078441;28;20557;-55
2022/10/15 00:18:32;;;;;;;13.10;7.47;;;12.90;95.30;;;13.09;61.24;95189.81;5084855;28;20509;-53
2022/10/15 00:20:59;;;;;;;14.87;9.27;;;12.90;95.40;;;13.12;61.38;95188.69;5085361;28;20454;-54
2022/10/15 00:23:26;;;;;;;17.53;9.20;;;12.90;95.60;;;13.13;61.44;95196.44;5085398;28;20499;-55
2022/10/15 00:26:05;;;;;;;27.47;9.77;;;12.90;95.50;;;13.15;61.28;95188.38;5084988;28;20830;-53
2022/10/15 00:28:32;;;;;;;13.60;8.27;;;12.90;95.60;;;13.16;61.46;95187.41;5082947;28;20552;-56
2022/10/15 00:31:06;;;;;;;10.33;8.60;;;13.00;95.70;;;13.17;61.48;95183.81;5082302;28;20886;-56
2022/10/15 00:33:33;;;;;;;15.47;8.90;;;13.00;95.70;;;13.19;61.15;95187.13;5085575;28;20466;-54
2022/10/15 00:36:05;;;;;;;10.07;6.93;;;13.00;95.70;;;13.19;61.85;95180.00;5085309;28;20481;-53
2022/10/15 00:38:32;;;;;;;13.73;7.90;;;13.00;95.90;;;13.20;62.02;95175.56;5085239;28;20577;-55
2022/10/15 00:41:00;;;;;;;11.90;7.50;;;13.00;95.90;;;13.22;61.88;95181.53;5084455;28;20518;-53
2022/10/15 00:43:39;;;;;;;15.70;7.37;;;13.00;95.90;;;13.24;62.01;95179.56;5084721;28;20523;-56
2022/10/15 00:46:15;;;;;;;6.33;5.70;;;13.00;95.90;;;13.24;62.00;95180.38;5084863;28;20479;-55
2022/10/15 00:48:42;;;;;;;7.90;6.00;;;13.00;96.00;;;13.25;62.01;95173.31;5082896;28;20496;-55
2022/10/15 00:51:10;;;;;;;7.90;6.00;;;13.10;96.40;;;13.25;61.86;95173.31;5077977;28;20454;-55
2022/10/15 00:53:37;;;;;;;11.37;6.27;;;13.10;96.40;;;13.27;62.52;95169.53;5084229;28;20481;-55
2022/10/15 00:56:05;;;;;;;5.30;4.90;;;13.00;96.60;;;13.27;62.44;95166.88;5080209;28;21419;-54
2022/10/15 00:58:32;;;;;;;6.30;4.93;;;13.10;96.70;;;13.28;62.41;95163.28;5084232;28;20493;-54
2022/10/15 01:00:59;;;;;;;6.77;5.00;;;13.10;96.80;;;13.32;62.63;95168.25;5084567;28;20519;-55
2022/10/15 01:03:28;;;;;;;9.03;4.83;;;13.10;96.80;;;13.34;62.99;95166.31;5079320;28;20485;-54
2022/10/15 01:05:55;;;;;;;3.97;3.73;;;13.10;97.20;;;13.35;63.03;95162.72;5088575;28;20449;-57
2022/10/15 01:08:23;;;;;;;6.40;5.00;;;13.10;97.40;;;13.38;63.26;95167.69;5088105;28;20498;-56
2022/10/15 01:10:56;;;;;;;5.30;4.80;;;13.20;97.40;;;13.39;63.32;95172.00;5088012;28;20876;-55
2022/10/15 01:13:29;;;;;;;6.83;5.40;;;13.20;97.60;;;13.41;63.44;95172.69;5087591;28;20474;-55
2022/10/15 01:16:00;;;;;;;6.43;5.30;;;13.20;97.60;;;13.42;63.29;95163.78;5088706;28;20442;-55
2022/10/15 01:18:30;;;;;;;7.23;5.13;;;13.20;97.50;;;13.42;62.64;95166.44;5088026;28;21025;-55
2022/10/15 01:21:08;;;;;;;8.70;5.63;;;13.20;97.30;;;13.41;62.94;95162.09;5088618;28;20527;-54
2022/10/15 01:24:14;;;;;;;11.90;5.40;;;13.20;97.20;;;13.39;62.82;95170.19;5087798;28;20578;-55
2022/10/15 01:27:29;;;;;;;8.27;5.60;;;13.20;97.10;;;13.37;62.81;95168.66;5087553;28;20460;-55
2022/10/15 01:30:23;;;;;;;5.27;4.33;;;13.20;97.10;;;13.34;63.12;95161.03;5079908;28;21013;-55
2022/10/15 01:33:24;;;;;;;7.03;4.33;;;13.10;97.20;;;13.31;63.71;95161.31;5079687;28;20564;-55
2022/10/15 01:35:53;;;;;;;4.80;3.60;;;13.10;97.50;;;13.26;63.90;95159.97;5079157;28;20474;-56
2022/10/15 01:38:31;;;;;;;6.67;3.87;;;13.10;97.90;;;13.25;64.12;95157.47;5081705;28;20501;-56
2022/10/15 01:41:01;;;;;;;4.37;3.97;;;13.10;98.30;;;13.25;63.67;95163.56;5077342;28;20959;-55
2022/10/15 01:43:32;;;;;;;7.77;3.30;;;13.00;98.20;;;13.24;64.67;95161.06;5084454;28;20478;-55
2022/10/15 01:46:04;;;;;;;7.40;3.60;;;13.10;98.60;;;13.23;64.69;95162.91;5082046;28;20459;-55
2022/10/15 01:48:31;;;;;;;3.63;3.30;;;13.10;98.80;;;13.22;64.91;95161.22;5084530;28;20466;-54
2022/10/15 01:51:00;;;;;;;2.80;2.60;;;13.00;99.10;;;13.19;64.94;95156.25;5080063;28;20477;-53
2022/10/15 01:53:28;;;;;;;5.07;3.30;;;13.00;99.10;;;13.16;65.86;95159.19;5083538;28;20812;-55
2022/10/15 01:55:57;;;;;;;5.70;3.27;;;13.00;99.70;;;13.14;65.87;95162.97;5076532;28;20852;-56
2022/10/15 01:58:25;;;;;;;4.40;3.40;;;13.00;99.80;;;13.12;65.91;95157.84;5087377;28;20500;-54
2022/10/15 02:00:53;;;;;;;7.10;3.90;;;13.00;99.90;;;13.14;66.18;95163.78;5087560;28;20446;-55
2022/10/15 02:03:22;;;;;;;5.27;3.50;;;13.00;99.90;;;13.16;66.48;95164.47;5083978;28;20480;-57
2022/10/15 02:05:52;;;;;;;4.90;3.83;;;13.00;99.90;;;13.17;66.16;95160.84;5087772;28;20538;-55
2022/10/15 02:08:23;;;;;;;4.93;3.83;;;13.00;99.90;;;13.19;66.26;95166.81;5087500;28;20621;-56
2022/10/15 02:10:53;;;;;;;3.87;3.57;;;13.00;99.90;;;13.21;66.44;95164.84;5087065;28;20442;-55
2022/10/15 02:13:32;;;;;;;4.03;3.63;;;13.00;99.90;;;13.24;66.16;95159.25;5087508;28;20478;-54
2022/10/15 02:16:05;;;;;;;4.20;3.83;;;13.00;99.90;;;13.24;66.44;95161.91;5080202;28;20442;-54
2022/10/15 02:18:38;;;;;;;9.00;3.87;;;13.00;99.90;;;13.26;66.60;95157.31;5087141;28;20489;-55
2022/10/15 02:21:08;;;;;;;4.30;3.93;;;13.00;99.90;;;13.27;66.89;95164.25;5081203;28;20449;-55
2022/10/15 02:23:39;;;;;;;4.97;3.67;;;13.10;99.90;;;13.31;66.49;95167.44;5082427;28;20478;-55
2022/10/15 02:26:08;;;;;;;3.43;3.23;;;13.10;99.90;;;13.32;66.71;95160.34;5079012;28;20903;-56
2022/10/15 02:28:35;;;;;;;4.57;4.20;;;13.10;99.90;;;13.35;66.81;95173.28;5080628;28;20473;-55
2022/10/15 02:31:02;;;;;;;4.20;3.90;;;13.10;99.90;;;13.36;66.75;95169.66;5075770;28;20469;-55
2022/10/15 02:33:30;;;;;;;11.60;3.83;;;13.10;99.90;;;13.36;67.06;95178.41;5082642;28;20588;-54
2022/10/15 02:35:58;;;;;;;3.90;3.60;;;13.20;99.90;;;13.33;66.73;95162.84;5081372;28;20450;-55
2022/10/15 02:38:27;;;;;;;4.57;4.17;;;13.20;99.90;;;13.37;66.90;95166.03;5082859;28;20854;-55
2022/10/15 02:40:54;;;;;;;6.37;3.90;;;13.20;99.90;;;13.37;67.11;95169.50;5082028;28;20902;-53
2022/10/15 02:43:22;;;;;;;3.80;3.37;;;13.20;99.90;;;13.40;66.89;95171.00;5078070;28;20470;-56
2022/10/15 02:45:49;;;;;;;4.33;3.50;;;13.20;99.90;;;13.41;66.61;95167.41;5080982;28;20852;-54
2022/10/15 02:48:16;;;;;;;6.73;4.20;;;13.20;99.90;;;13.41;66.61;95167.41;5083014;28;20477;-55
2022/10/15 02:50:44;;;;;;;6.00;3.40;;;13.20;99.90;;;13.41;66.61;95167.41;5080752;28;20482;-57
2022/10/15 02:53:12;;;;;;;4.37;3.97;;;13.20;99.90;;;13.38;66.74;95157.13;5082947;28;20523;-55
2022/10/15 02:55:40;;;;;;;15.37;4.17;;;13.20;99.90;;;13.37;66.93;95161.59;5080717;28;20447;-54
2022/10/15 02:58:07;;;;;;;4.60;4.23;;;13.20;99.90;;;13.35;66.64;95168.81;5086455;28;20887;-55
2022/10/15 03:00:34;;;;;;;4.77;4.07;;;13.20;99.90;;;13.32;67.44;95161.16;5086386;28;20641;-56
2022/10/15 03:03:01;;;;;;;3.80;3.50;;;13.10;99.90;;;13.32;67.09;95168.25;5084683;28;20442;-54
2022/10/15 03:05:29;;;;;;;5.90;3.87;;;13.10;99.90;;;13.32;67.01;95162.97;5086100;28;20449;-54
2022/10/15 03:07:56;;;;;;;6.20;4.40;;;13.10;99.90;;;13.33;67.17;95159.38;5085799;28;20977;-55
2022/10/15 03:10:24;;;;;;;4.03;3.73;;;13.20;99.90;;;13.34;67.45;95158.41;5085440;28;20454;-56
2022/10/15 03:12:52;;;;;;;9.10;4.67;;;13.10;99.90;;;13.34;67.34;95159.25;5086190;28;20961;-55
2022/10/15 03:15:19;;;;;;;4.70;4.30;;;13.10;99.90;;;13.35;67.12;95163.53;5083361;28;20461;-56
2022/10/15 03:17:46;;;;;;;4.47;4.03;;;13.10;99.90;;;13.37;67.38;95160.75;5085881;28;20493;-54
2022/10/15 03:20:14;;;;;;;10.43;4.60;;;13.20;99.90;;;13.37;67.05;95160.75;5086023;28;21042;-53
2022/10/15 03:22:41;;;;;;;5.07;3.80;;;13.20;99.90;;;13.38;67.23;95162.41;5085861;28;20465;-56
2022/10/15 03:25:09;;;;;;;5.93;4.60;;;13.20;99.90;;;13.40;67.26;95169.22;5085097;28;20492;-57
2022/10/15 03:27:37;;;;;;;4.37;3.97;;;13.20;99.90;;;13.40;67.13;95168.38;5078407;28;20450;-55
2022/10/15 03:30:06;;;;;;;6.13;4.77;;;13.20;99.90;;;13.38;66.98;95168.50;5083332;28;20474;-54
2022/10/15 03:32:33;;;;;;;4.30;3.87;;;13.20;99.90;;;13.37;67.22;95171.31;5085818;28;20515;-53
2022/10/15 03:35:01;;;;;;;4.57;4.00;;;13.20;99.90;;;13.36;66.98;95172.31;5084611;28;20539;-55
2022/10/15 03:37:28;;;;;;;6.00;4.00;;;13.20;99.90;;;13.35;67.11;95174.09;5085863;28;20801;-55
2022/10/15 03:39:55;;;;;;;4.60;4.20;;;13.20;99.90;;;13.35;67.20;95168.81;5077923;28;20542;-54
2022/10/15 03:42:22;;;;;;;5.53;4.50;;;13.10;99.90;;;13.35;66.92;95174.09;5085996;28;20450;-56
2022/10/15 03:44:51;;;;;;;9.67;4.60;;;13.20;99.90;;;13.37;67.41;95168.66;5085457;28;20498;-56
2022/10/15 03:47:18;;;;;;;6.40;4.30;;;13.20;99.90;;;13.38;67.03;95175.63;5085489;28;20934;-56
2022/10/15 03:49:45;;;;;;;5.33;4.83;;;13.20;99.90;;;13.39;67.54;95178.13;5085538;28;20465;-54
2022/10/15 03:52:13;;;;;;;6.73;4.67;;;13.20;99.90;;;13.40;67.33;95179.78;5085867;28;20461;-54
2022/10/15 03:54:40;;;;;;;4.17;3.77;;;13.20;99.90;;;13.40;67.31;95177.13;5083864;28;20477;-56
2022/10/15 03:57:07;;;;;;;8.43;4.97;;;13.20;99.90;;;13.41;67.16;95184.06;5083048;28;20461;-56
2022/10/15 03:59:34;;;;;;;6.93;5.00;;;13.20;99.90;;;13.40;67.28;95181.56;5084877;28;20555;-53
2022/10/15 04:02:03;;;;;;;6.90;4.77;;;13.20;99.90;;;13.42;67.43;95184.91;5084502;28;20454;-55
2022/10/15 04:04:31;;;;;;;7.10;4.03;;;13.20;99.90;;;13.42;67.27;95184.91;5081307;28;20474;-55
2022/10/15 04:06:58;;;;;;;6.20;4.07;;;13.20;99.90;;;13.43;67.78;95187.41;5085810;28;20840;-56
2022/10/15 04:09:25;;;;;;;10.20;4.30;;;13.20;99.90;;;13.43;67.23;95179.47;5085026;28;21021;-57
2022/10/15 04:11:53;;;;;;;4.90;4.37;;;13.20;99.90;;;13.44;67.24;95182.94;5080168;28;20472;-57
2022/10/15 04:14:20;;;;;;;6.47;4.33;;;13.20;99.90;;;13.45;67.35;95185.44;5085703;28;20474;-57
2022/10/15 04:16:47;;;;;;;9.37;4.40;;;13.20;99.90;;;13.46;67.19;95191.53;5085821;28;20481;-58
2022/10/15 04:19:16;;;;;;;5.10;3.77;;;13.30;99.90;;;13.47;67.12;95185.28;5085178;28;20489;-56
2022/10/15 04:21:43;;;;;;;5.67;4.47;;;13.30;99.90;;;13.49;67.33;95190.44;5085306;28;20446;-56
2022/10/15 04:24:10;;;;;;;6.47;4.33;;;13.30;99.90;;;13.49;67.17;95191.25;5078082;28;20523;-55
2022/10/15 04:26:38;;;;;;;8.47;4.60;;;13.30;99.90;;;13.51;67.39;95193.75;5085082;28;20507;-55
2022/10/15 04:29:05;;;;;;;9.67;4.20;;;13.30;99.90;;;13.49;67.50;95187.78;5077604;28;20471;-56
2022/10/15 04:31:32;;;;;;;5.67;4.47;;;13.30;99.90;;;13.50;67.12;95182.34;5082610;28;20454;-56
2022/10/15 04:34:00;;;;;;;5.57;4.50;;;13.30;99.90;;;13.51;67.32;95178.75;5084973;28;20529;-54
2022/10/15 04:36:28;;;;;;;5.60;4.70;;;13.30;99.90;;;13.50;67.15;95187.63;5086873;28;20453;-55
2022/10/15 04:38:56;;;;;;;9.40;4.80;;;13.30;99.90;;;13.50;67.21;95186.81;5088361;28;20494;-55
2022/10/15 04:41:23;;;;;;;9.20;5.33;;;13.30;99.90;;;13.50;67.19;95195.56;5089134;28;20458;-55
2022/10/15 04:43:50;;;;;;;4.50;4.10;;;13.30;99.90;;;13.51;67.02;95189.31;5089278;28;20521;-54
2022/10/15 04:46:18;;;;;;;7.67;6.43;;;13.30;99.90;;;13.51;67.26;95189.31;5089051;28;20453;-56
2022/10/15 04:48:46;;;;;;;14.33;5.57;;;13.30;99.90;;;13.51;66.91;95194.59;5088928;28;20816;-54
2022/10/15 04:51:15;;;;;;;5.27;4.73;;;13.30;99.90;;;13.52;67.29;95196.22;5089063;28;20949;-54
2022/10/15 04:53:44;;;;;;;7.03;5.50;;;13.30;99.90;;;13.53;66.97;95197.09;5089002;28;20899;-54
2022/10/15 04:56:14;;;;;;;4.87;4.23;;;13.30;99.90;;;13.52;67.22;95200.69;5083551;28;20457;-56
2022/10/15 04:58:41;;;;;;;9.43;4.60;;;13.30;99.90;;;13.51;67.20;95205.16;5089272;28;20481;-57
2022/10/15 05:01:11;;;;;;;5.23;4.73;;;13.30;99.90;;;13.52;66.89;95205.97;5081843;28;20446;-56
2022/10/15 05:03:38;;;;;;;5.00;4.50;;;13.30;99.90;;;13.53;67.37;95208.47;5087842;28;20481;-57
2022/10/15 05:06:07;;;;;;;11.67;4.67;;;13.30;99.90;;;13.54;67.18;95210.16;5088962;28;20457;-55
2022/10/15 05:08:34;;;;;;;7.23;5.57;;;13.30;99.90;;;13.56;67.17;95210.00;5088438;28;20469;-55
2022/10/15 05:11:03;;;;;;;11.20;5.87;;;13.40;99.90;;;13.56;67.29;95204.72;5088544;28;20449;-55
2022/10/15 05:13:31;;;;;;;5.17;4.57;;;13.40;99.90;;;13.56;66.90;95208.19;5087277;28;20471;-53
2022/10/15 05:15:58;;;;;;;12.00;6.40;;;13.40;99.90;;;13.56;67.40;95213.47;5084996;28;20461;-56
2022/10/15 05:18:25;;;;;;;8.53;6.30;;;13.40;99.90;;;13.57;67.14;95206.34;5082638;28;21003;-57
2022/10/15 05:20:53;;;;;;;8.50;5.60;;;13.40;99.90;;;13.58;67.25;95213.31;5087031;28;20476;-55
2022/10/15 05:23:20;;;;;;;19.83;8.87;;;13.40;99.90;;;13.60;66.87;95217.47;5081222;28;20481;-54
2022/10/15 05:25:47;;;;;;;8.73;6.23;;;13.40;99.90;;;13.63;67.31;95224.25;5078584;28;20950;-59
2022/10/15 05:28:16;;;;;;;8.67;5.80;;;13.40;99.90;;;13.66;67.17;95225.78;5083275;28;20474;-55
2022/10/15 05:30:43;;;;;;;27.53;6.23;;;13.40;99.90;;;13.69;66.76;95226.31;5082293;28;20458;-55
2022/10/15 05:33:10;;;;;;;14.10;5.77;;;13.50;99.90;;;13.72;66.64;95230.47;5082402;28;20471;-54
2022/10/15 05:35:38;;;;;;;7.60;6.03;;;13.50;99.90;;;13.73;66.79;95234.78;5083903;28;20450;-55
2022/10/15 05:38:05;;;;;;;8.43;5.70;;;13.50;99.90;;;13.74;66.69;95236.44;5078689;28;20554;-54
2022/10/15 05:40:32;;;;;;;9.90;6.50;;;13.50;99.90;;;13.78;66.86;95233.34;5086019;28;20457;-56
2022/10/15 05:43:00;;;;;;;11.60;6.77;;;13.50;99.90;;;13.80;66.50;95234.03;5082920;28;20503;-56
2022/10/15 05:45:28;;;;;;;12.53;5.77;;;13.60;99.90;;;13.84;66.51;95241.66;5084940;28;20465;-55
2022/10/15 05:47:56;;;;;;;11.83;6.00;;;13.60;99.90;;;13.85;66.25;95240.66;5084104;28;20504;-58
2022/10/15 05:50:23;;;;;;;8.43;6.87;;;13.60;99.90;;;13.88;66.64;95243.84;5084410;28;20446;-55
2022/10/15 05:52:50;;;;;;;11.63;6.40;;;13.70;99.90;;;13.90;66.40;95244.53;5082353;28;20454;-57
2022/10/15 05:55:18;;;;;;;9.73;6.23;;;13.70;99.90;;;13.93;66.35;95252.16;5084715;28;20446;-55
2022/10/15 05:57:45;;;;;;;13.03;6.50;;;13.70;99.90;;;13.97;66.48;95252.69;5088225;28;20811;-56
2022/10/15 06:00:14;;;;;;;11.20;5.60;;;13.80;99.90;;;13.98;65.87;95244.59;5087805;28;20500;-56
2022/10/15 06:02:43;;;;;;;8.53;7.53;;;13.80;99.90;;;13.98;65.83;95244.59;5084393;28;20446;-58
2022/10/15 06:05:10;;;;;;;15.83;6.57;;;13.80;99.90;;;13.97;66.17;95248.25;5087036;28;20470;-60
2022/10/15 06:07:37;;;;;;;9.93;6.97;;;13.80;99.90;;;14.00;65.87;95255.03;5086653;28;20456;-54
2022/10/15 06:10:05;;;;;;;11.90;6.37;;;13.80;99.90;;;14.03;65.96;95261.84;5087667;28;20478;-55
2022/10/15 06:12:33;;;;;;;15.63;7.17;;;13.80;99.90;;;14.14;65.76;95259.78;5086888;28;20562;-54
2022/10/15 06:15:00;;;;;;;18.40;11.73;;;13.90;99.90;;;14.30;65.38;95269.69;5087355;28;20469;-56
2022/10/15 06:17:27;;;;;;;7.67;6.13;;;14.00;99.90;;;14.47;64.76;95264.53;5087093;28;20484;-56
2022/10/15 06:19:56;;;;;;;9.37;6.10;;;14.10;99.90;;;14.63;64.16;95267.31;5086829;28;20539;-53
2022/10/15 06:22:23;;;;;;;8.43;4.60;;;14.20;99.90;;;14.75;63.64;95256.44;5086886;28;20457;-55
2022/10/15 06:24:50;;;;;;;7.93;5.67;;;14.40;99.70;;;14.81;63.38;95261.97;5086961;28;20474;-54
2022/10/15 06:27:18;;;;;;;13.73;5.60;;;14.50;99.30;;;14.87;62.57;95264.00;5086958;28;20450;-55
2022/10/15 06:29:45;;;;;;;6.73;4.70;;;14.60;99.10;;;14.97;62.37;95263.88;5083015;28;20473;-57
2022/10/15 06:32:12;;;;;;;6.93;5.10;;;14.70;98.90;;;15.06;62.24;95270.06;5086600;28;21179;-56
2022/10/15 06:34:39;;;;;;;16.37;5.27;;;14.70;99.20;;;15.13;62.14;95272.91;5081332;28;20466;-56
2022/10/15 06:37:08;;;;;;;7.77;5.23;;;14.80;98.80;;;15.19;62.14;95275.72;5086249;28;20454;-58
2022/10/15 06:39:35;;;;;;;14.20;6.23;;;14.90;98.60;;;15.23;61.96;95276.25;5083707;28;20493;-56
2022/10/15 06:42:03;;;;;;;8.87;5.20;;;15.00;98.50;;;15.24;61.27;95280.56;5086706;28;20449;-56
2022/10/15 06:44:30;;;;;;;8.90;5.00;;;15.00;98.00;;;15.23;61.65;95284.22;5086961;28;20466;-56
2022/10/15 06:46:58;;;;;;;9.13;4.90;;;15.00;98.10;;;15.22;61.70;95290.50;5079807;28;20485;-56
2022/10/15 06:49:25;;;;;;;7.27;4.87;;;15.00;98.10;;;15.21;61.63;95288.81;5086166;28;20558;-56
2022/10/15 06:51:53;;;;;;;9.27;4.70;;;15.00;98.10;;;15.24;61.61;95285.84;5086335;28;20515;-53
2022/10/15 06:54:21;;;;;;;11.03;5.20;;;15.00;98.10;;;15.28;61.60;95284.56;5086474;28;20507;-56
2022/10/15 06:56:49;;;;;;;10.53;4.80;;;15.00;98.00;;;15.38;60.89;95285.28;5079687;28;20829;-54
2022/10/15 06:59:16;;;;;;;11.40;4.83;;;15.10;97.70;;;15.62;61.38;95294.31;5085769;28;20930;-55
2022/10/15 07:01:43;;;;;;;18.13;5.23;;;15.30;98.00;;;15.89;60.38;95290.59;5086318;28;20874;-56
2022/10/15 07:04:11;;;;;;;9.83;5.27;;;15.50;97.50;;;16.10;59.64;95284.84;5085238;28;20477;-54
2022/10/15 07:06:38;;;;;;;6.57;4.70;;;15.70;97.10;;;16.26;59.95;95289.31;5085576;28;20484;-56
2022/10/15 07:09:05;;;;;;;6.13;4.23;;;15.90;97.00;;;16.47;59.44;95296.00;5086035;28;20474;-56
2022/10/15 07:11:34;;;;;;;6.87;5.60;;;16.10;96.80;;;16.63;58.88;95305.78;5086338;28;20527;-55
2022/10/15 07:14:01;;;;;;;12.33;5.47;;;16.30;96.40;;;16.93;59.14;95299.00;5086347;28;20466;-55
2022/10/15 07:16:28;;;;;;;11.50;5.30;;;16.60;96.70;;;17.45;57.90;95300.34;5086178;28;20465;-55
2022/10/15 07:18:56;;;;;;;7.50;6.70;;;17.00;96.10;;;17.84;57.39;95302.16;5086047;28;20481;-55
2022/10/15 07:21:23;;;;;;;6.63;5.30;;;17.50;95.90;;;18.48;56.11;95297.63;5085811;28;20454;-57
2022/10/15 07:23:50;;;;;;;9.03;5.20;;;18.00;95.10;;;19.13;55.13;95304.25;5086253;28;20851;-56
2022/10/15 07:26:18;;;;;;;7.73;5.50;;;18.70;93.90;;;19.71;52.82;95299.94;5086151;28;20981;-54
2022/10/15 07:28:46;;;;;;;7.93;4.13;;;19.30;92.40;;;20.42;52.84;95293.97;5084668;28;20568;-54
2022/10/15 07:31:14;;;;;;;4.53;3.90;;;20.10;92.40;;;21.26;51.64;95289.75;5079079;28;20472;-55
2022/10/15 07:33:43;;;;;;;8.77;4.53;;;20.90;91.20;;;22.13;49.38;95290.19;5085332;28;20803;-55
2022/10/15 07:36:11;;;;;;;6.60;3.87;;;21.80;87.00;;;22.96;48.98;95290.94;5085666;28;20440;-56
2022/10/15 07:38:40;;;;;;;6.13;4.50;;;22.60;86.60;;;23.44;47.18;95290.72;5085555;28;20572;-56
2022/10/15 07:41:07;;;;;;;12.00;4.90;;;23.20;81.60;;;23.70;46.15;95291.69;5086154;28;20478;-55
2022/10/15 07:43:35;;;;;;;5.30;4.33;;;23.50;76.40;;;23.59;45.65;95293.16;5086280;28;20504;-56
2022/10/15 07:46:04;;;;;;;5.07;4.63;;;23.50;74.50;;;23.18;42.00;95294.28;5086918;28;20454;-54
2022/10/15 07:48:32;;;;;;;6.03;4.60;;;23.20;68.00;;;22.75;44.27;95298.16;5085700;28;20466;-54
2022/10/15 07:51:00;;;;;;;7.13;4.70;;;22.80;68.50;;;22.38;45.24;95292.34;5085910;28;20461;-53
2022/10/15 07:53:27;;;;;;;10.13;4.90;;;22.30;70.50;;;21.99;45.84;95301.88;5085618;28;20466;-55
2022/10/15 07:55:58;;;;;;;6.23;5.63;;;21.90;72.00;;;21.80;46.09;95300.78;5083175;28;20462;-55
2022/10/15 07:58:26;;;;;;;7.43;5.10;;;21.70;71.80;;;21.84;46.08;95302.88;5083892;28;20477;-56
2022/10/15 08:00:53;;;;;;;10.67;5.07;;;21.60;72.40;;;21.79;46.16;95301.81;5078342;28;20493;-52
2022/10/15 08:03:22;;;;;;;10.73;5.63;;;21.50;72.80;;;21.69;46.01;95299.50;5081509;28;20481;-56
2022/10/15 08:05:52;;;;;;;6.57;5.20;;;21.40;71.50;;;21.59;46.58;95301.69;5085031;28;20458;-55
2022/10/15 08:08:19;;;;;;;5.60;5.10;;;21.30;72.40;;;21.46;46.39;95295.22;5085404;28;20469;-55
2022/10/15 08:10:47;;;;;;;6.30;4.63;;;21.10;71.80;;;21.22;46.20;95304.53;5088055;28;20545;-54
2022/10/15 08:13:14;;;;;;;8.90;4.73;;;20.90;72.00;;;20.92;46.18;95298.56;5089657;28;20593;-53
2022/10/15 08:15:42;;;;;;;8.97;5.90;;;20.70;71.10;;;20.60;46.58;95293.53;5089702;28;20526;-57
2022/10/15 08:18:11;;;;;;;7.80;5.10;;;20.40;71.70;;;20.38;47.10;95292.69;5089617;28;21032;-56
2022/10/15 08:20:40;;;;;;;7.40;5.20;;;20.20;72.40;;;20.17;47.63;95292.69;5089217;28;20542;-55
2022/10/15 08:23:13;;;;;;;8.90;5.00;;;20.00;73.30;;;19.87;47.38;95284.75;5089598;28;21037;-56
2022/10/15 08:25:41;;;;;;;6.30;5.10;;;19.70;73.00;;;19.57;47.85;95286.63;5089889;28;20442;-54
2022/10/15 08:28:09;;;;;;;4.90;4.40;;;19.40;72.90;;;19.40;48.20;95283.31;5089760;28;20474;-54
2022/10/15 08:30:36;;;;;;;6.33;3.90;;;19.20;73.60;;;19.44;48.06;95276.56;5089595;28;20488;-55
2022/10/15 08:33:04;;;;;;;5.43;4.83;;;19.20;74.50;;;19.88;47.69;95279.22;5088236;28;20500;-54
2022/10/15 08:35:34;;;;;;;7.77;4.90;;;19.40;74.30;;;20.18;47.01;95280.97;5089446;28;20461;-55
2022/10/15 08:38:03;;;;;;;21.13;12.50;;;19.70;73.60;;;20.53;46.51;95281.13;5089609;28;20892;-57
2022/10/15 08:40:30;;;;;;;9.77;5.00;;;20.00;73.00;;;20.63;46.08;95278.94;5087511;28;21097;-55
2022/10/15 08:42:57;;;;;;;5.20;4.70;;;20.10;71.90;;;20.67;45.67;95274.91;5089356;28;20450;-56
2022/10/15 08:45:28;;;;;;;5.17;4.70;;;20.20;70.70;;;20.76;46.21;95272.94;5089523;28;20454;-56
2022/10/15 08:47:58;;;;;;;9.23;5.47;;;20.40;71.90;;;21.07;45.78;95269.88;5083222;28;20589;-54
2022/10/15 08:50:32;;;;;;;8.07;4.43;;;20.60;71.20;;;21.28;45.30;95271.63;5083726;28;20507;-54
2022/10/15 08:52:59;;;;;;;8.80;4.70;;;20.80;71.00;;;21.73;45.11;95268.59;5083485;28;20449;-54
2022/10/15 08:55:35;;;;;;;6.20;5.60;;;21.20;71.10;;;22.10;44.47;95273.69;5082682;28;20450;-55
2022/10/15 08:58:06;;;;;;;7.63;5.07;;;21.50;69.50;;;22.31;43.89;95278.94;5084952;28;20469;-57
2022/10/15 09:00:37;;;;;;;7.80;5.77;;;21.80;68.60;;;22.64;43.13;95286.19;5089024;28;20983;-53
2022/10/15 09:03:09;;;;;;;6.47;5.60;;;22.10;67.50;;;22.97;42.05;95280.00;5086912;28;20498;-56
2022/10/15 09:05:42;;;;;;;6.60;5.50;;;22.30;66.00;;;22.96;41.66;95283.75;5088845;28;20814;-56
2022/10/15 09:08:20;;;;;;;6.07;5.47;;;22.50;63.30;;;22.90;41.82;95276.50;5089116;28;20896;-56
2022/10/15 09:10:51;;;;;;;6.40;5.27;;;22.50;63.40;;;22.80;42.31;95270.72;5083387;28;20971;-56
2022/10/15 09:13:26;;;;;;;10.93;5.10;;;22.40;64.10;;;22.67;41.64;95282.28;5088918;28;20466;-54
2022/10/15 09:15:57;;;;;;;6.73;5.10;;;22.30;63.10;;;22.85;41.92;95279.81;5088720;28;20453;-58
2022/10/15 09:18:25;;;;;;;5.97;5.20;;;22.50;63.20;;;23.14;41.97;95274.25;5086354;28;20475;-54
2022/10/15 09:20:53;;;;;;;10.17;5.57;;;22.70;63.60;;;23.60;40.82;95276.03;5086748;28;20512;-55
2022/10/15 09:23:22;;;;;;;8.80;5.03;;;23.00;63.20;;;24.15;39.80;95270.22;5087544;28;20466;-56
2022/10/15 09:25:57;;;;;;;8.93;4.80;;;23.50;61.30;;;24.69;39.57;95270.75;5087986;28;20450;-56
2022/10/15 09:28:27;;;;;;;5.30;4.77;;;24.10;61.30;;;25.18;38.68;95270.97;5087956;28;20545;-55
2022/10/15 09:30:56;;;;;;;7.00;4.40;;;24.50;58.90;;;25.61;38.62;95267.47;5087907;28;20515;-55
2022/10/15 09:33:34;;;;;;;11.40;4.90;;;24.90;58.60;;;26.08;37.09;95264.25;5086257;28;20853;-56
2022/10/15 09:36:15;;;;;;;4.53;4.13;;;25.40;57.30;;;26.59;36.83;95272.88;5087929;28;20468;-56
2022/10/15 09:38:51;;;;;;;6.00;4.60;;;25.90;56.90;;;26.90;35.60;95268.28;5084373;28;20969;-56
2022/10/15 09:41:25;;;;;;;4.93;4.50;;;26.20;53.30;;;26.94;34.96;95275.69;5085656;28;20479;-54
2022/10/15 09:43:53;;;;;;;6.70;4.80;;;26.40;52.90;;;26.72;35.12;95269.19;5088101;28;20477;-54
2022/10/15 09:46:20;;;;;;;5.57;4.47;;;26.30;52.00;;;26.56;35.26;95267.94;5088830;28;20454;-56
2022/10/15 09:48:50;;;;;;;6.40;4.70;;;26.10;52.30;;;26.25;35.03;95262.56;5088312;28;20470;-55
2022/10/15 09:51:24;;;;;;;8.33;4.77;;;25.80;51.90;;;25.75;35.30;95258.19;5081240;28;20519;-56
2022/10/15 09:53:58;;;;;;;6.50;4.60;;;25.40;51.50;;;25.34;36.18;95267.72;5087099;28;20478;-56
2022/10/15 09:56:30;;;;;;;21.57;16.07;;;25.20;52.70;;;25.11;35.21;95264.81;5077534;28;20819;-55
2022/10/15 09:58:59;;;;;;;6.67;4.20;;;24.80;51.70;;;24.65;35.76;95270.38;5085409;28;20521;-57
2022/10/15 10:01:28;;;;;;;4.10;3.70;;;24.40;52.20;;;24.16;36.50;95263.81;5087281;28;20485;-55
2022/10/15 10:04:10;;;;;;;5.33;3.63;;;24.00;52.60;;;23.72;36.99;95271.63;5084590;28;20532;-56
2022/10/15 10:06:44;;;;;;;5.60;3.50;;;23.60;53.30;;;23.11;37.70;95275.47;5086627;28;20958;-54
2022/10/15 10:09:17;;;;;;;8.73;5.03;;;23.00;52.90;;;22.57;38.05;95269.25;5082028;28;20469;-57
2022/10/15 10:11:51;;;;;;;5.30;4.20;;;22.50;53.50;;;22.25;38.63;95268.19;5085745;28;20518;-54
2022/10/15 10:14:26;;;;;;;3.90;3.60;;;22.20;54.70;;;22.48;39.01;95268.66;5087330;28;20474;-56
2022/10/15 10:17:21;;;;;;;6.83;4.80;;;22.20;55.60;;;22.99;38.03;95269.06;5083972;28;20532;-57
2022/10/15 10:20:25;;;;;;;8.50;3.77;;;22.50;54.90;;;23.43;37.87;95257.66;5060525;28;21028;-55
2022/10/15 10:22:53;;;;;;;5.03;3.73;;;22.90;55.60;;;23.94;37.69;95250.69;5078132;28;20653;-55
2022/10/15 10:25:30;;;;;;;4.50;4.10;;;23.20;55.40;;;24.08;37.25;95258.72;5087423;28;20450;-52
2022/10/15 10:28:05;;;;;;;8.30;4.40;;;23.50;54.50;;;24.07;36.72;95254.38;5086890;28;20449;-57